createdAt,value
2023-01-29T00:02:05.903Z,0.02
2023-01-29T00:04:32.751Z,0.04
2023-01-29T00:07:01.344Z,0.05
2023-01-29T00:09:28.854Z,0.10
2023-01-29T00:11:57.286Z,0.11
2023-01-29T00:14:25.491Z,0.13
2023-01-29T00:16:51.952Z,0.13
2023-01-29T00:19:22.463Z,0.12
2023-01-29T00:21:50.722Z,0.13
2023-01-29T00:24:17.264Z,0.15
2023-01-29T00:26:44.075Z,0.17
2023-01-29T00:29:11.202Z,0.19
2023-01-29T00:31:38.138Z,0.25
2023-01-29T00:34:04.706Z,0.30
2023-01-29T00:36:31.409Z,0.27
2023-01-29T00:39:00.665Z,0.27
2023-01-29T00:41:48.741Z,0.29
2023-01-29T00:44:33.793Z,0.28
2023-01-29T00:47:05.096Z,0.25
2023-01-29T00:49:31.568Z,0.24
2023-01-29T00:52:18.823Z,0.25
2023-01-29T00:54:45.336Z,0.25
2023-01-29T00:57:11.871Z,0.25
2023-01-29T00:59:40.187Z,0.24
2023-01-29T01:02:25.653Z,0.22
2023-01-29T01:04:52.423Z,0.20
2023-01-29T01:07:19.498Z,0.16
2023-01-29T01:10:06.499Z,0.15
2023-01-29T01:12:33.209Z,0.13
2023-01-29T01:14:59.820Z,0.12
2023-01-29T01:17:26.500Z,0.10
2023-01-29T01:19:52.996Z,0.08
2023-01-29T01:22:21.888Z,0.06
2023-01-29T01:24:50.143Z,0.06
2023-01-29T01:27:17.523Z,0.06
2023-01-29T01:29:44.070Z,0.09
2023-01-29T01:32:10.928Z,0.11
2023-01-29T01:34:37.690Z,0.07
2023-01-29T01:37:04.334Z,0.06
2023-01-29T01:39:37.246Z,0.06
2023-01-29T01:42:03.848Z,0.03
2023-01-29T01:44:53.474Z,0.00
2023-01-29T01:47:24.806Z,-0.03
2023-01-29T01:49:52.359Z,-0.06
2023-01-29T01:52:21.058Z,-0.06
2023-01-29T01:54:48.995Z,-0.07
2023-01-29T01:57:25.287Z,-0.07
2023-01-29T01:59:58.245Z,-0.09
2023-01-29T02:02:45.859Z,-0.09
2023-01-29T02:05:32.685Z,-0.09
2023-01-29T02:08:18.548Z,-0.10
2023-01-29T02:10:47.064Z,-0.11
2023-01-29T02:13:18.616Z,-0.10
2023-01-29T02:15:48.718Z,-0.10
2023-01-29T02:18:21.446Z,-0.12
2023-01-29T02:21:09.051Z,-0.13
2023-01-29T02:23:44.505Z,-0.14
2023-01-29T02:26:54.131Z,-0.15
2023-01-29T02:29:35.513Z,-0.16
2023-01-29T02:32:15.361Z,-0.19
2023-01-29T02:35:28.830Z,-0.18
2023-01-29T02:38:22.269Z,-0.20
2023-01-29T02:41:30.061Z,-0.16
2023-01-29T02:44:11.459Z,-0.16
2023-01-29T02:46:47.085Z,-0.16
2023-01-29T02:49:33.177Z,-0.15
2023-01-29T02:52:02.893Z,-0.18
2023-01-29T02:54:41.561Z,-0.17
2023-01-29T02:57:20.291Z,-0.20
2023-01-29T03:00:05.270Z,-0.21
2023-01-29T03:02:46.629Z,-0.21
2023-01-29T03:05:19.576Z,-0.18
2023-01-29T03:07:55.987Z,-0.20
2023-01-29T03:10:30.437Z,-0.23
2023-01-29T03:13:15.101Z,-0.24
2023-01-29T03:15:48.712Z,-0.23
2023-01-29T03:18:18.887Z,-0.26
2023-01-29T03:20:52.215Z,-0.27
2023-01-29T03:23:27.091Z,-0.27
2023-01-29T03:26:18.334Z,-0.25
2023-01-29T03:29:05.890Z,-0.23
2023-01-29T03:31:55.383Z,-0.15
2023-01-29T03:34:28.511Z,-0.13
2023-01-29T03:37:02.506Z,-0.13
2023-01-29T03:39:29.751Z,-0.11
2023-01-29T03:42:03.653Z,-0.11
2023-01-29T03:44:49.663Z,-0.12
2023-01-29T03:47:40.992Z,-0.12
2023-01-29T03:50:16.840Z,-0.13
2023-01-29T03:52:52.508Z,-0.11
2023-01-29T03:55:36.959Z,-0.11
2023-01-29T03:58:20.287Z,-0.12
2023-01-29T04:00:59.020Z,-0.12
2023-01-29T04:03:55.287Z,-0.12
2023-01-29T04:06:29.890Z,-0.11
2023-01-29T04:09:14.503Z,-0.12
2023-01-29T04:11:45.141Z,-0.12
2023-01-29T04:14:12.371Z,-0.12
2023-01-29T04:16:44.860Z,-0.11
2023-01-29T04:19:12.055Z,-0.12
2023-01-29T04:21:38.810Z,-0.12
2023-01-29T04:24:09.484Z,-0.13
2023-01-29T04:26:55.244Z,-0.13
2023-01-29T04:29:36.281Z,-0.12
2023-01-29T04:32:09.525Z,-0.11
2023-01-29T04:35:10.985Z,-0.12
2023-01-29T04:37:45.033Z,-0.10
2023-01-29T04:40:32.122Z,-0.09
2023-01-29T04:43:38.689Z,-0.09
2023-01-29T04:46:10.554Z,-0.09
2023-01-29T04:48:46.020Z,-0.09
2023-01-29T04:51:37.178Z,-0.06
2023-01-29T04:54:17.591Z,-0.05
2023-01-29T04:56:56.410Z,-0.06
2023-01-29T04:59:47.010Z,-0.07
2023-01-29T05:02:14.010Z,-0.08
2023-01-29T05:04:44.684Z,-0.08
2023-01-29T05:07:17.377Z,-0.11
2023-01-29T05:09:45.668Z,-0.12
2023-01-29T05:12:14.505Z,-0.13
2023-01-29T05:14:46.225Z,-0.10
2023-01-29T05:17:18.706Z,-0.08
2023-01-29T05:19:46.063Z,-0.07
2023-01-29T05:22:17.243Z,-0.08
2023-01-29T05:24:44.586Z,-0.07
2023-01-29T05:27:39.064Z,-0.07
2023-01-29T05:30:06.265Z,-0.10
2023-01-29T05:32:34.727Z,-0.13
2023-01-29T05:35:01.559Z,-0.12
2023-01-29T05:37:28.022Z,-0.15
2023-01-29T05:39:54.590Z,-0.14
2023-01-29T05:42:27.863Z,-0.15
2023-01-29T05:44:54.389Z,-0.14
2023-01-29T05:47:21.067Z,-0.15
2023-01-29T05:49:49.435Z,-0.15
2023-01-29T05:52:15.899Z,-0.16
2023-01-29T05:54:44.563Z,-0.17
2023-01-29T05:57:13.314Z,-0.19
2023-01-29T05:59:39.786Z,-0.19
2023-01-29T06:02:06.426Z,-0.21
2023-01-29T06:04:42.790Z,-0.21
2023-01-29T06:07:12.882Z,-0.22
2023-01-29T06:09:39.361Z,-0.23
2023-01-29T06:12:08.143Z,-0.23
2023-01-29T06:14:36.707Z,-0.21
2023-01-29T06:17:03.205Z,-0.20
2023-01-29T06:19:29.840Z,-0.18
2023-01-29T06:21:56.401Z,-0.19
2023-01-29T06:24:23.386Z,-0.20
2023-01-29T06:26:55.466Z,-0.20
2023-01-29T06:29:21.999Z,-0.20
2023-01-29T06:31:48.551Z,-0.20
2023-01-29T06:34:15.251Z,-0.18
2023-01-29T06:36:42.011Z,-0.20
2023-01-29T06:39:08.547Z,-0.21
2023-01-29T06:41:37.604Z,-0.20
2023-01-29T06:44:04.266Z,-0.24
2023-01-29T06:46:31.228Z,-0.33
2023-01-29T06:49:02.260Z,-0.41
2023-01-29T06:51:28.924Z,-0.52
2023-01-29T06:53:56.454Z,-0.64
2023-01-29T06:56:25.866Z,-0.71
2023-01-29T06:58:52.642Z,-0.73
2023-01-29T07:01:34.700Z,-0.75
2023-01-29T07:04:04.732Z,-0.78
2023-01-29T07:06:31.440Z,-0.77
2023-01-29T07:08:58.134Z,-0.77
2023-01-29T07:11:24.785Z,-0.79
2023-01-29T07:13:51.303Z,-0.81
2023-01-29T07:16:19.202Z,-0.81
2023-01-29T07:18:47.608Z,-0.79
2023-01-29T07:21:14.323Z,-0.80
2023-01-29T07:23:40.792Z,-0.81
2023-01-29T07:26:07.576Z,-0.81
2023-01-29T07:28:38.457Z,-0.83
2023-01-29T07:31:06.489Z,-0.83
2023-01-29T07:33:44.218Z,-0.83
2023-01-29T07:36:13.456Z,-0.87
2023-01-29T07:38:39.984Z,-0.88
2023-01-29T07:41:13.419Z,-0.90
2023-01-29T07:43:39.948Z,-0.92
2023-01-29T07:46:06.511Z,-1.00
2023-01-29T07:48:33.097Z,-1.02
2023-01-29T07:51:00.055Z,-0.98
2023-01-29T07:53:27.982Z,-1.00
2023-01-29T07:55:54.648Z,-1.01
2023-01-29T07:58:21.387Z,-1.02
2023-01-29T08:00:47.926Z,-1.06
2023-01-29T08:03:17.597Z,-1.05
2023-01-29T08:05:45.032Z,-1.05
2023-01-29T08:08:11.572Z,-1.08
2023-01-29T08:10:41.353Z,-1.10
2023-01-29T08:13:08.670Z,-1.09
2023-01-29T08:15:38.007Z,-1.06
2023-01-29T08:18:12.199Z,-1.01
2023-01-29T08:20:38.806Z,-1.01
2023-01-29T08:23:10.290Z,-0.98
2023-01-29T08:25:36.935Z,-0.91
2023-01-29T08:28:04.876Z,-0.89
2023-01-29T08:30:33.697Z,-0.89
2023-01-29T08:33:01.141Z,-0.86
2023-01-29T08:35:27.655Z,-0.82
2023-01-29T08:38:02.150Z,-0.79
2023-01-29T08:40:33.686Z,-0.77
2023-01-29T08:43:09.489Z,-0.71
2023-01-29T08:45:39.192Z,-0.68
2023-01-29T08:48:06.135Z,-0.70
2023-01-29T08:50:34.866Z,-0.70
2023-01-29T08:53:03.448Z,-0.65
2023-01-29T08:55:29.976Z,-0.66
2023-01-29T08:57:59.534Z,-0.59
2023-01-29T09:00:28.345Z,-0.55
2023-01-29T09:02:54.936Z,-0.52
2023-01-29T09:05:24.925Z,-0.50
2023-01-29T09:07:54.227Z,-0.50
2023-01-29T09:10:22.679Z,-0.54
2023-01-29T09:12:49.203Z,-0.49
2023-01-29T09:15:17.867Z,-0.55
2023-01-29T09:17:44.538Z,-0.59
2023-01-29T09:20:11.652Z,-0.60
2023-01-29T09:22:43.267Z,-0.57
2023-01-29T09:25:10.782Z,-0.50
2023-01-29T09:27:37.439Z,-0.48
2023-01-29T09:30:05.642Z,-0.45
2023-01-29T09:35:18.976Z,-0.39
2023-01-29T09:37:49.980Z,-0.40
2023-01-29T09:40:31.277Z,-0.42
2023-01-29T09:43:07.964Z,-0.51
2023-01-29T09:45:37.132Z,-0.53
2023-01-29T09:48:05.788Z,-0.50
2023-01-29T09:50:49.427Z,-0.45
2023-01-29T09:53:38.732Z,-0.36
2023-01-29T09:56:13.001Z,-0.30
2023-01-29T09:58:42.376Z,-0.27
2023-01-29T10:01:33.724Z,-0.21
2023-01-29T10:04:12.053Z,-0.21
2023-01-29T10:06:47.482Z,-0.31
2023-01-29T10:09:30.751Z,-0.31
2023-01-29T10:12:29.658Z,-0.25
2023-01-29T10:15:05.079Z,-0.19
2023-01-29T10:17:50.540Z,-0.15
2023-01-29T10:20:27.333Z,-0.08
2023-01-29T10:23:07.821Z,-0.07
2023-01-29T10:25:39.195Z,-0.03
2023-01-29T10:28:16.956Z,0.03
2023-01-29T10:30:49.003Z,0.09
2023-01-29T10:33:22.271Z,0.19
2023-01-29T10:35:55.344Z,0.30
2023-01-29T10:38:42.988Z,0.40
2023-01-29T10:41:28.022Z,0.51
2023-01-29T10:44:20.138Z,0.62
2023-01-29T10:46:58.099Z,0.76
2023-01-29T10:50:17.439Z,0.78
2023-01-29T10:52:53.067Z,0.90
2023-01-29T10:55:41.235Z,1.02
2023-01-29T10:58:29.463Z,1.11
2023-01-29T11:00:58.331Z,1.20
2023-01-29T11:03:30.479Z,1.32
2023-01-29T11:06:10.231Z,1.28
2023-01-29T11:09:12.103Z,1.18
2023-01-29T11:11:43.248Z,1.26
2023-01-29T11:14:15.191Z,1.36
2023-01-29T11:16:49.538Z,1.46
2023-01-29T11:19:16.678Z,1.42
2023-01-29T11:21:57.439Z,1.39
2023-01-29T11:24:23.935Z,1.39
2023-01-29T11:26:53.095Z,1.41
2023-01-29T11:29:46.237Z,1.44
2023-01-29T11:32:24.568Z,1.47
2023-01-29T11:35:00.156Z,1.62
2023-01-29T11:37:41.134Z,1.73
2023-01-29T11:40:37.169Z,1.85
2023-01-29T11:43:28.206Z,1.75
2023-01-29T11:46:00.377Z,1.65
2023-01-29T11:48:51.569Z,1.68
2023-01-29T11:51:27.192Z,1.70
2023-01-29T11:54:00.574Z,1.74
2023-01-29T11:56:42.862Z,1.73
2023-01-29T11:59:37.162Z,1.93
2023-01-29T12:02:32.243Z,2.02
2023-01-29T12:05:15.404Z,1.94
2023-01-29T12:07:44.343Z,1.91
2023-01-29T12:10:36.596Z,1.86
2023-01-29T12:13:23.132Z,2.01
2023-01-29T12:15:49.922Z,2.03
2023-01-29T12:18:34.592Z,2.19
2023-01-29T12:21:24.237Z,2.25
2023-01-29T12:24:15.551Z,2.22
2023-01-29T12:26:51.857Z,2.27
2023-01-29T12:29:57.689Z,2.33
2023-01-29T12:32:26.931Z,2.39
2023-01-29T12:35:13.822Z,2.30
2023-01-29T12:38:01.028Z,2.27
2023-01-29T12:40:33.887Z,2.19
2023-01-29T12:43:06.856Z,2.09
2023-01-29T12:45:41.300Z,1.86
2023-01-29T12:48:12.163Z,1.73
2023-01-29T12:50:38.889Z,1.59
2023-01-29T12:53:19.343Z,1.48
2023-01-29T12:55:53.905Z,1.52
2023-01-29T12:58:28.854Z,1.70
2023-01-29T13:00:59.269Z,1.69
2023-01-29T13:03:57.167Z,1.61
2023-01-29T13:06:30.383Z,1.53
2023-01-29T13:09:11.661Z,1.64
2023-01-29T13:11:43.911Z,1.72
2023-01-29T13:14:24.209Z,1.70
2023-01-29T13:17:06.960Z,1.68
2023-01-29T13:19:41.128Z,1.66
2023-01-29T13:22:22.603Z,1.70
2023-01-29T13:24:58.682Z,1.80
2023-01-29T13:27:33.893Z,1.91
2023-01-29T13:30:02.810Z,1.94
2023-01-29T13:32:31.536Z,2.03
2023-01-29T13:35:22.794Z,2.10
2023-01-29T13:37:53.425Z,2.15
2023-01-29T13:40:27.450Z,2.17
2023-01-29T13:42:56.007Z,2.18
2023-01-29T13:45:34.088Z,2.27
2023-01-29T13:48:21.827Z,2.19
2023-01-29T13:50:52.160Z,2.19
2023-01-29T13:53:25.023Z,2.40
2023-01-29T13:55:51.687Z,2.62
2023-01-29T13:58:44.176Z,2.71
2023-01-29T14:01:10.829Z,2.69
2023-01-29T14:04:03.695Z,2.76
2023-01-29T14:06:45.624Z,2.73
2023-01-29T14:09:33.893Z,2.84
2023-01-29T14:12:00.672Z,2.86
2023-01-29T14:14:48.927Z,2.83
2023-01-29T14:17:17.454Z,2.81
2023-01-29T14:19:51.715Z,2.69
2023-01-29T14:22:24.611Z,2.63
2023-01-29T14:24:57.672Z,2.59
2023-01-29T14:27:27.756Z,2.59
2023-01-29T14:30:04.638Z,2.66
2023-01-29T14:32:31.720Z,2.59
2023-01-29T14:35:03.968Z,2.51
2023-01-29T14:37:42.225Z,2.60
2023-01-29T14:40:11.455Z,2.52
2023-01-29T14:42:47.360Z,2.46
2023-01-29T14:48:51.721Z,2.39
2023-01-29T14:51:20.434Z,2.26
2023-01-29T14:53:53.654Z,2.22
2023-01-29T14:57:08.555Z,2.21
2023-01-29T14:59:52.173Z,2.15
2023-01-29T15:02:33.736Z,2.24
2023-01-29T15:05:02.637Z,2.30
2023-01-29T15:07:42.366Z,2.31
2023-01-29T15:10:22.716Z,2.27
2023-01-29T15:12:58.239Z,2.35
2023-01-29T15:15:47.312Z,2.30
2023-01-29T15:18:34.723Z,2.30
2023-01-29T15:21:15.714Z,2.22
2023-01-29T15:23:47.795Z,2.13
2023-01-29T15:26:27.256Z,2.05
2023-01-29T15:29:03.547Z,2.00
2023-01-29T15:31:31.375Z,1.96
2023-01-29T15:34:03.096Z,1.96
2023-01-29T15:36:32.133Z,1.86
2023-01-29T15:39:19.366Z,1.76
2023-01-29T15:41:48.722Z,1.67
2023-01-29T15:44:24.588Z,1.64
2023-01-29T15:46:58.634Z,1.54
2023-01-29T15:49:33.959Z,1.46
2023-01-29T15:52:05.299Z,1.42
2023-01-29T15:54:36.167Z,1.37
2023-01-29T15:57:03.608Z,1.33
2023-01-29T15:59:35.297Z,1.31
2023-01-29T16:02:50.968Z,1.26
2023-01-29T16:05:23.867Z,1.27
2023-01-29T16:07:52.377Z,1.28
2023-01-29T16:10:24.158Z,1.25
2023-01-29T16:12:52.121Z,1.20
2023-01-29T16:15:34.384Z,1.18
2023-01-29T16:18:03.581Z,1.14
2023-01-29T16:20:41.582Z,1.09
2023-01-29T16:23:17.574Z,1.04
2023-01-29T16:25:44.271Z,1.02
2023-01-29T16:28:11.197Z,0.99
2023-01-29T16:30:38.870Z,0.92
2023-01-29T16:33:10.332Z,0.88
2023-01-29T16:35:37.127Z,0.85
2023-01-29T16:38:08.140Z,0.81
2023-01-29T16:40:38.166Z,0.80
2023-01-29T16:43:42.779Z,0.78
2023-01-29T16:46:35.906Z,0.75
2023-01-29T16:49:03.023Z,0.72
2023-01-29T16:51:39.883Z,0.69
2023-01-29T16:54:22.263Z,0.67
2023-01-29T16:56:58.105Z,0.65
2023-01-29T16:59:35.825Z,0.60
2023-01-29T17:02:08.027Z,0.60
2023-01-29T17:04:34.570Z,0.58
2023-01-29T17:07:02.381Z,0.58
2023-01-29T17:09:35.441Z,0.57
2023-01-29T17:12:06.842Z,0.54
2023-01-29T17:14:40.367Z,0.48
2023-01-29T17:17:15.499Z,0.33
2023-01-29T17:19:42.011Z,0.24
2023-01-29T17:22:14.700Z,0.14
2023-01-29T17:24:48.169Z,0.11
2023-01-29T17:27:22.731Z,0.03
2023-01-29T17:29:57.805Z,-0.07
2023-01-29T17:32:25.100Z,-0.18
2023-01-29T17:35:20.415Z,-0.30
2023-01-29T17:37:47.499Z,-0.40
2023-01-29T17:40:43.687Z,-0.50
2023-01-29T17:43:11.895Z,-0.60
2023-01-29T17:45:41.154Z,-0.68
2023-01-29T17:48:27.127Z,-0.76
2023-01-29T17:50:57.005Z,-0.85
2023-01-29T17:53:26.535Z,-0.95
2023-01-29T17:56:07.208Z,-1.07
2023-01-29T17:58:36.549Z,-1.15
2023-01-29T18:01:03.169Z,-1.23
2023-01-29T18:03:32.362Z,-1.32
2023-01-29T18:05:59.079Z,-1.44
2023-01-29T18:08:32.967Z,-1.52
2023-01-29T18:11:00.571Z,-1.56
2023-01-29T18:13:27.769Z,-1.63
2023-01-29T18:15:54.463Z,-1.69
2023-01-29T18:18:23.521Z,-1.73
2023-01-29T18:20:50.539Z,-1.80
2023-01-29T18:23:17.366Z,-1.92
2023-01-29T18:25:55.099Z,-1.99
2023-01-29T18:28:21.583Z,-2.07
2023-01-29T18:30:48.185Z,-2.12
2023-01-29T18:33:18.035Z,-2.18
2023-01-29T18:35:45.280Z,-2.23
2023-01-29T18:38:11.966Z,-2.30
2023-01-29T18:40:40.559Z,-2.34
2023-01-29T18:43:08.027Z,-2.37
2023-01-29T18:45:34.670Z,-2.43
2023-01-29T18:48:03.289Z,-2.45
2023-01-29T18:50:30.048Z,-2.46
2023-01-29T18:52:56.609Z,-2.49
2023-01-29T18:55:24.014Z,-2.53
2023-01-29T18:58:26.733Z,-2.58
2023-01-29T19:00:41.300Z,-2.64
2023-01-29T19:03:08.075Z,-2.72
2023-01-29T19:05:34.568Z,-2.73
2023-01-29T19:08:03.687Z,-2.77
2023-01-29T19:10:30.233Z,-2.82
2023-01-29T19:12:56.810Z,-2.92
2023-01-29T19:15:23.562Z,-3.00
2023-01-29T19:17:50.969Z,-3.04
2023-01-29T19:20:21.986Z,-3.09
2023-01-29T19:22:48.746Z,-3.11
2023-01-29T19:25:16.147Z,-3.16
2023-01-29T19:27:48.928Z,-3.21
2023-01-29T19:30:15.801Z,-3.32
2023-01-29T19:32:42.367Z,-3.38
2023-01-29T19:35:08.858Z,-3.35
2023-01-29T19:37:35.406Z,-3.37
2023-01-29T19:40:03.911Z,-3.40
2023-01-29T19:42:30.487Z,-3.42
2023-01-29T19:44:57.063Z,-3.44
2023-01-29T19:47:23.897Z,-3.43
2023-01-29T19:49:50.547Z,-3.44
2023-01-29T19:52:51.646Z,-3.47
2023-01-29T19:55:20.753Z,-3.45
2023-01-29T19:57:47.652Z,-3.58
2023-01-29T20:00:17.441Z,-3.70
2023-01-29T20:02:44.073Z,-3.74
2023-01-29T20:05:12.771Z,-3.78
2023-01-29T20:07:42.503Z,-3.84
2023-01-29T20:10:15.473Z,-3.87
2023-01-29T20:12:44.575Z,-3.84
2023-01-29T20:15:12.237Z,-3.89
2023-01-29T20:17:41.086Z,-3.91
2023-01-29T20:20:10.325Z,-3.89
2023-01-29T20:22:36.896Z,-3.90
2023-01-29T20:25:03.587Z,-3.89
2023-01-29T20:27:30.123Z,-3.94
2023-01-29T20:29:57.407Z,-4.05
2023-01-29T20:32:25.782Z,-4.11
2023-01-29T20:34:52.556Z,-4.15
2023-01-29T20:37:19.630Z,-4.15
2023-01-29T20:39:46.335Z,-4.14
2023-01-29T20:42:13.027Z,-4.06
2023-01-29T20:44:39.707Z,-4.08
2023-01-29T20:47:06.290Z,-4.18
2023-01-29T20:49:33.072Z,-4.18
2023-01-29T20:51:59.563Z,-4.16
2023-01-29T20:54:28.346Z,-4.25
2023-01-29T20:56:55.068Z,-4.24
2023-01-29T20:59:22.980Z,-4.23
2023-01-29T21:01:51.270Z,-4.27
2023-01-29T21:04:17.866Z,-4.30
2023-01-29T21:06:44.413Z,-4.29
2023-01-29T21:09:11.093Z,-4.32
2023-01-29T21:11:37.566Z,-4.35
2023-01-29T21:14:04.155Z,-4.32
2023-01-29T21:16:30.893Z,-4.31
2023-01-29T21:18:58.506Z,-4.30
2023-01-29T21:21:28.609Z,-4.28
2023-01-29T21:23:55.277Z,-4.31
2023-01-29T21:26:23.306Z,-4.36
2023-01-29T21:28:50.206Z,-4.41
2023-01-29T21:31:19.598Z,-4.49
2023-01-29T21:33:46.139Z,-4.46
2023-01-29T21:36:13.089Z,-4.52
2023-01-29T21:38:40.037Z,-4.59
2023-01-29T21:41:08.949Z,-4.65
2023-01-29T21:43:35.792Z,-4.73
2023-01-29T21:46:05.370Z,-4.80
2023-01-29T21:48:31.941Z,-4.81
2023-01-29T21:50:58.429Z,-4.72
2023-01-29T21:53:30.329Z,-4.64
2023-01-29T21:56:04.050Z,-4.63
2023-01-29T21:58:33.512Z,-4.61
2023-01-29T22:01:18.444Z,-4.63
2023-01-29T22:03:48.452Z,-4.66
2023-01-29T22:06:15.533Z,-4.61
2023-01-29T22:08:42.300Z,-4.62
2023-01-29T22:11:11.405Z,-4.70
2023-01-29T22:13:38.159Z,-4.71
2023-01-29T22:16:06.020Z,-4.76
2023-01-29T22:18:41.655Z,-4.81
2023-01-29T22:21:09.554Z,-4.83
2023-01-29T22:23:36.348Z,-4.85
2023-01-29T22:26:09.695Z,-4.87
2023-01-29T22:28:36.259Z,-4.94
2023-01-29T22:31:04.193Z,-4.97
2023-01-29T22:33:33.286Z,-5.01
2023-01-29T22:36:00.379Z,-5.06
2023-01-29T22:38:26.925Z,-5.10
2023-01-29T22:40:57.619Z,-5.13
2023-01-29T22:43:26.021Z,-5.21
2023-01-29T22:45:53.067Z,-5.24
2023-01-29T22:48:26.551Z,-5.25
2023-01-29T22:51:11.868Z,-5.24
2023-01-29T22:53:44.570Z,-5.26
2023-01-29T22:56:11.933Z,-5.26
2023-01-29T22:58:38.689Z,-5.17
2023-01-29T23:01:07.428Z,-5.13
2023-01-29T23:03:34.444Z,-5.13
2023-01-29T23:06:05.311Z,-5.14
2023-01-29T23:08:36.733Z,-5.23
2023-01-29T23:11:15.290Z,-5.33
2023-01-29T23:13:53.178Z,-5.33
2023-01-29T23:16:23.092Z,-5.27
2023-01-29T23:18:51.874Z,-5.26
2023-01-29T23:21:19.649Z,-5.20
2023-01-29T23:23:46.934Z,-5.27
2023-01-29T23:26:32.236Z,-5.37
2023-01-29T23:29:01.225Z,-5.42
2023-01-29T23:31:27.998Z,-5.31
2023-01-29T23:33:56.315Z,-5.23
2023-01-29T23:36:22.809Z,-5.20
2023-01-29T23:38:49.247Z,-5.23
2023-01-29T23:41:17.530Z,-5.24
2023-01-29T23:43:46.275Z,-5.23
2023-01-29T23:46:12.921Z,-5.11
2023-01-29T23:48:41.287Z,-5.07
2023-01-29T23:51:07.769Z,-5.07
2023-01-29T23:53:36.183Z,-5.13
2023-01-29T23:56:04.938Z,-5.15
2023-01-29T23:58:32.733Z,-5.11
